createdAt,value
2022-08-28T00:00:26.458Z,19.15
2022-08-28T00:01:26.415Z,19.16
2022-08-28T00:02:26.455Z,19.18
2022-08-28T00:03:26.383Z,19.18
2022-08-28T00:04:26.391Z,19.16
2022-08-28T00:05:26.404Z,19.16
2022-08-28T00:06:26.346Z,19.09
2022-08-28T00:07:26.329Z,19.08
2022-08-28T00:08:26.331Z,19.08
2022-08-28T00:09:26.308Z,19.02
2022-08-28T00:10:26.356Z,18.96
2022-08-28T00:11:26.290Z,18.90
2022-08-28T00:12:26.287Z,18.81
2022-08-28T00:13:26.259Z,18.80
2022-08-28T00:14:26.256Z,18.73
2022-08-28T00:15:26.293Z,18.71
2022-08-28T00:16:26.293Z,18.71
2022-08-28T00:17:26.219Z,18.73
2022-08-28T00:18:26.215Z,18.73
2022-08-28T00:19:26.201Z,18.75
2022-08-28T00:20:26.237Z,18.77
2022-08-28T00:21:26.187Z,18.80
2022-08-28T00:22:26.167Z,18.83
2022-08-28T00:23:26.160Z,18.83
2022-08-28T00:24:27.139Z,18.86
2022-08-28T00:25:26.179Z,18.86
2022-08-28T00:26:26.128Z,18.86
2022-08-28T00:27:26.136Z,18.80
2022-08-28T00:28:26.089Z,18.78
2022-08-28T00:29:26.087Z,18.77
2022-08-28T00:30:26.130Z,18.74
2022-08-28T00:31:26.165Z,18.73
2022-08-28T00:32:26.056Z,18.63
2022-08-28T00:33:26.049Z,18.60
2022-08-28T00:34:28.543Z,18.59
2022-08-28T00:35:27.078Z,18.58
2022-08-28T00:36:26.005Z,18.60
2022-08-28T00:37:26.015Z,18.62
2022-08-28T00:38:25.988Z,18.60
2022-08-28T00:39:25.987Z,18.60
2022-08-28T00:40:30.562Z,18.59
2022-08-28T00:41:27.467Z,18.60
2022-08-28T00:42:25.952Z,18.63
2022-08-28T00:43:25.930Z,18.66
2022-08-28T00:44:25.923Z,18.66
2022-08-28T00:45:25.958Z,18.70
2022-08-28T00:46:25.961Z,18.71
2022-08-28T00:47:25.898Z,18.75
2022-08-28T00:48:25.877Z,18.77
2022-08-28T00:49:25.877Z,18.78
2022-08-28T00:50:25.904Z,18.77
2022-08-28T00:51:25.848Z,18.78
2022-08-28T00:52:25.835Z,18.77
2022-08-28T00:53:27.136Z,18.75
2022-08-28T00:54:25.807Z,18.74
2022-08-28T00:55:25.850Z,18.74
2022-08-28T00:56:25.783Z,18.70
2022-08-28T00:57:27.148Z,18.70
2022-08-28T00:58:25.757Z,18.66
2022-08-28T00:59:25.742Z,18.65
2022-08-28T01:00:25.768Z,18.65
2022-08-28T01:01:25.794Z,18.62
2022-08-28T01:02:25.776Z,18.62
2022-08-28T01:03:26.585Z,18.62
2022-08-28T01:04:25.696Z,18.60
2022-08-28T01:05:25.726Z,18.60
2022-08-28T01:06:25.679Z,18.62
2022-08-28T01:07:25.662Z,18.62
2022-08-28T01:08:25.654Z,18.63
2022-08-28T01:09:25.643Z,18.63
2022-08-28T01:10:25.677Z,18.63
2022-08-28T01:11:25.615Z,18.62
2022-08-28T01:12:25.626Z,18.65
2022-08-28T01:13:25.602Z,18.63
2022-08-28T01:14:25.576Z,18.62
2022-08-28T01:15:25.623Z,18.63
2022-08-28T01:16:29.254Z,18.65
2022-08-28T01:17:26.544Z,18.66
2022-08-28T01:18:25.534Z,18.66
2022-08-28T01:19:25.520Z,18.68
2022-08-28T01:20:25.571Z,18.66
2022-08-28T01:21:25.499Z,18.63
2022-08-28T01:22:25.486Z,18.62
2022-08-28T01:23:25.468Z,18.62
2022-08-28T01:24:25.476Z,18.60
2022-08-28T01:25:25.493Z,18.60
2022-08-28T01:26:25.446Z,18.60
2022-08-28T01:27:25.436Z,18.62
2022-08-28T01:28:25.423Z,18.63
2022-08-28T01:29:25.407Z,18.63
2022-08-28T01:30:25.455Z,18.62
2022-08-28T01:31:25.429Z,18.60
2022-08-28T01:32:25.363Z,18.60
2022-08-28T01:33:27.940Z,18.59
2022-08-28T01:34:25.355Z,18.65
2022-08-28T01:35:25.383Z,18.65
2022-08-28T01:36:25.325Z,18.65
2022-08-28T01:37:25.309Z,18.66
2022-08-28T01:38:26.812Z,18.65
2022-08-28T01:39:25.277Z,18.66
2022-08-28T01:40:25.378Z,18.66
2022-08-28T01:41:25.273Z,18.66
2022-08-28T01:42:25.255Z,18.70
2022-08-28T01:43:25.249Z,18.71
2022-08-28T01:44:25.244Z,18.71
2022-08-28T01:45:25.256Z,18.71
2022-08-28T01:46:25.317Z,18.71
2022-08-28T01:47:25.198Z,18.73
2022-08-28T01:48:25.187Z,18.74
2022-08-28T01:49:25.171Z,18.74
2022-08-28T01:50:25.216Z,18.75
2022-08-28T01:51:25.152Z,18.77
2022-08-28T01:52:26.450Z,18.80
2022-08-28T01:53:25.172Z,18.77
2022-08-28T01:54:26.112Z,18.78
2022-08-28T01:55:25.142Z,18.78
2022-08-28T01:56:25.128Z,18.80
2022-08-28T01:57:25.086Z,18.81
2022-08-28T01:58:25.068Z,18.83
2022-08-28T01:59:25.057Z,18.80
2022-08-28T02:00:25.091Z,18.81
2022-08-28T02:01:25.149Z,18.83
2022-08-28T02:02:25.030Z,18.84
2022-08-28T02:03:24.999Z,18.83
2022-08-28T02:04:31.831Z,18.84
2022-08-28T02:05:26.033Z,18.86
2022-08-28T02:06:24.995Z,18.86
2022-08-28T02:07:24.964Z,18.86
2022-08-28T02:08:24.972Z,18.86
2022-08-28T02:09:24.939Z,18.86
2022-08-28T02:10:24.990Z,18.86
2022-08-28T02:11:24.921Z,18.88
2022-08-28T02:12:24.916Z,18.86
2022-08-28T02:13:25.698Z,18.86
2022-08-28T02:14:24.889Z,18.84
2022-08-28T02:15:24.918Z,18.84
2022-08-28T02:16:24.857Z,18.84
2022-08-28T02:17:24.863Z,18.84
2022-08-28T02:18:24.843Z,18.84
2022-08-28T02:19:24.832Z,18.84
2022-08-28T02:20:24.827Z,18.84
2022-08-28T02:21:24.849Z,18.83
2022-08-28T02:22:24.791Z,18.81
2022-08-28T02:23:24.781Z,18.81
2022-08-28T02:24:24.772Z,18.78
2022-08-28T02:25:24.755Z,18.78
2022-08-28T02:26:24.810Z,18.78
2022-08-28T02:27:24.738Z,18.80
2022-08-28T02:28:24.741Z,18.77
2022-08-28T02:29:24.717Z,18.77
2022-08-28T02:30:24.706Z,18.77
2022-08-28T02:31:24.759Z,18.78
2022-08-28T02:32:24.695Z,18.77
2022-08-28T02:33:24.661Z,18.78
2022-08-28T02:34:24.645Z,18.77
2022-08-28T02:35:24.625Z,18.80
2022-08-28T02:36:24.669Z,18.80
2022-08-28T02:37:24.595Z,18.80
2022-08-28T02:38:24.611Z,18.80
2022-08-28T02:39:24.601Z,18.81
2022-08-28T02:40:24.650Z,18.83
2022-08-28T02:41:24.641Z,18.81
2022-08-28T02:42:24.562Z,18.81
2022-08-28T02:43:24.553Z,18.81
2022-08-28T02:44:24.531Z,18.83
2022-08-28T02:45:24.518Z,18.80
2022-08-28T02:46:24.629Z,18.80
2022-08-28T02:47:24.500Z,18.80
2022-08-28T02:48:24.492Z,18.80
2022-08-28T02:49:24.474Z,18.78
2022-08-28T02:50:24.485Z,18.80
2022-08-28T02:51:24.490Z,18.80
2022-08-28T02:52:24.453Z,18.81
2022-08-28T02:53:24.429Z,18.83
2022-08-28T02:54:24.417Z,18.83
2022-08-28T02:55:24.401Z,18.80
2022-08-28T02:56:24.446Z,18.80
2022-08-28T02:57:24.382Z,18.81
2022-08-28T02:58:24.377Z,18.81
2022-08-28T02:59:24.362Z,18.80
2022-08-28T03:00:24.334Z,18.80
2022-08-28T03:01:24.405Z,18.78
2022-08-28T03:02:24.452Z,18.80
2022-08-28T03:03:24.329Z,18.77
2022-08-28T03:04:24.304Z,18.77
2022-08-28T03:05:24.305Z,18.78
2022-08-28T03:06:24.314Z,18.78
2022-08-28T03:07:24.272Z,18.78
2022-08-28T03:08:27.256Z,18.74
2022-08-28T03:09:24.247Z,18.74
2022-08-28T03:10:24.232Z,18.73
2022-08-28T03:11:24.265Z,18.73
2022-08-28T03:12:24.227Z,18.73
2022-08-28T03:13:27.098Z,18.74
2022-08-28T03:14:24.192Z,18.71
2022-08-28T03:15:24.171Z,18.71
2022-08-28T03:16:24.303Z,18.71
2022-08-28T03:17:24.165Z,18.71
2022-08-28T03:18:24.143Z,18.68
2022-08-28T03:19:24.115Z,18.68
2022-08-28T03:20:24.118Z,18.68
2022-08-28T03:21:24.151Z,18.62
2022-08-28T03:22:24.098Z,18.63
2022-08-28T03:23:24.073Z,18.62
2022-08-28T03:24:24.073Z,18.60
2022-08-28T03:25:24.081Z,18.60
2022-08-28T03:26:24.100Z,18.58
2022-08-28T03:27:24.033Z,18.55
2022-08-28T03:28:24.022Z,18.53
2022-08-28T03:29:24.009Z,18.55
2022-08-28T03:30:24.005Z,18.52
2022-08-28T03:31:24.023Z,18.53
2022-08-28T03:32:23.977Z,18.52
2022-08-28T03:33:24.997Z,18.52
2022-08-28T03:34:23.967Z,18.49
2022-08-28T03:35:23.952Z,18.45
2022-08-28T03:36:23.998Z,18.45
2022-08-28T03:37:23.905Z,18.43
2022-08-28T03:38:25.277Z,18.44
2022-08-28T03:39:23.886Z,18.40
2022-08-28T03:40:23.925Z,18.41
2022-08-28T03:41:23.914Z,18.40
2022-08-28T03:42:23.862Z,18.40
2022-08-28T03:43:23.851Z,18.40
2022-08-28T03:44:23.835Z,18.37
2022-08-28T03:45:23.843Z,18.35
2022-08-28T03:46:24.053Z,18.37
2022-08-28T03:47:23.798Z,18.38
2022-08-28T03:48:23.794Z,18.38
2022-08-28T03:49:23.781Z,18.40
2022-08-28T03:50:23.755Z,18.37
2022-08-28T03:51:29.121Z,18.40
2022-08-28T03:52:24.748Z,18.37
2022-08-28T03:53:23.730Z,18.31
2022-08-28T03:54:23.714Z,18.28
2022-08-28T03:55:23.701Z,18.23
2022-08-28T03:56:23.742Z,18.23
2022-08-28T03:57:23.684Z,18.19
2022-08-28T03:58:23.676Z,18.18
2022-08-28T03:59:24.396Z,18.18
2022-08-28T04:00:24.645Z,18.13
2022-08-28T04:01:23.721Z,18.10
2022-08-28T04:02:23.629Z,18.08
2022-08-28T04:03:23.666Z,18.08
2022-08-28T04:04:23.604Z,18.10
2022-08-28T04:05:23.594Z,18.07
2022-08-28T04:06:23.627Z,18.04
2022-08-28T04:07:23.571Z,18.04
2022-08-28T04:08:23.565Z,17.97
2022-08-28T04:09:23.519Z,17.94
2022-08-28T04:10:23.534Z,17.92
2022-08-28T04:11:23.565Z,17.92
2022-08-28T04:12:23.552Z,17.94
2022-08-28T04:13:23.499Z,17.92
2022-08-28T04:14:23.495Z,17.94
2022-08-28T04:15:23.464Z,17.92
2022-08-28T04:16:23.585Z,17.92
2022-08-28T04:17:23.451Z,17.89
2022-08-28T04:18:23.444Z,17.86
2022-08-28T04:19:23.434Z,17.83
2022-08-28T04:20:23.434Z,17.85
2022-08-28T04:21:23.454Z,17.82
2022-08-28T04:22:23.639Z,17.78
2022-08-28T04:23:23.398Z,17.76
2022-08-28T04:24:23.399Z,17.76
2022-08-28T04:25:23.355Z,17.80
2022-08-28T04:26:23.412Z,17.83
2022-08-28T04:27:23.345Z,17.82
2022-08-28T04:28:23.331Z,17.80
2022-08-28T04:29:23.317Z,17.79
2022-08-28T04:30:23.322Z,17.80
2022-08-28T04:31:32.128Z,17.82
2022-08-28T04:32:24.284Z,17.83
2022-08-28T04:33:23.283Z,17.80
2022-08-28T04:34:23.264Z,17.82
2022-08-28T04:35:23.252Z,17.83
2022-08-28T04:36:23.299Z,17.86
2022-08-28T04:37:23.233Z,17.85
2022-08-28T04:38:23.221Z,17.86
2022-08-28T04:39:23.194Z,17.86
2022-08-28T04:40:23.245Z,17.85
2022-08-28T04:41:23.231Z,17.86
2022-08-28T04:42:23.175Z,17.86
2022-08-28T04:43:23.164Z,17.86
2022-08-28T04:44:23.154Z,17.85
2022-08-28T04:45:23.135Z,17.85
2022-08-28T04:46:23.186Z,17.86
2022-08-28T04:47:23.133Z,17.87
2022-08-28T04:48:23.112Z,17.87
2022-08-28T04:49:23.095Z,17.89
2022-08-28T04:50:23.139Z,17.89
2022-08-28T04:51:23.067Z,17.89
2022-08-28T04:52:23.054Z,17.89
2022-08-28T04:53:23.054Z,17.89
2022-08-28T04:54:23.044Z,17.89
2022-08-28T04:55:27.841Z,17.89
2022-08-28T04:56:24.027Z,17.90
2022-08-28T04:57:22.997Z,17.89
2022-08-28T04:58:24.086Z,17.87
2022-08-28T04:59:23.013Z,17.85
2022-08-28T05:00:23.111Z,17.87
2022-08-28T05:01:23.090Z,17.90
2022-08-28T05:02:23.075Z,17.94
2022-08-28T05:03:22.949Z,17.97
2022-08-28T05:04:22.928Z,18.00
2022-08-28T05:05:22.913Z,17.94
2022-08-28T05:06:22.962Z,17.92
2022-08-28T05:07:22.904Z,17.92
2022-08-28T05:08:22.884Z,17.94
2022-08-28T05:09:22.870Z,17.94
2022-08-28T05:10:22.864Z,17.89
2022-08-28T05:11:33.837Z,17.89
2022-08-28T05:12:23.842Z,17.90
2022-08-28T05:13:22.822Z,17.92
2022-08-28T05:14:22.793Z,17.90
2022-08-28T05:15:22.796Z,17.92
2022-08-28T05:16:22.892Z,17.94
2022-08-28T05:17:22.786Z,17.98
2022-08-28T05:18:22.771Z,17.97
2022-08-28T05:19:22.756Z,17.97
2022-08-28T05:20:22.754Z,17.97
2022-08-28T05:21:22.769Z,17.94
2022-08-28T05:22:22.719Z,17.98
2022-08-28T05:23:25.485Z,17.97
2022-08-28T05:24:22.702Z,17.98
2022-08-28T05:25:22.675Z,17.97
2022-08-28T05:26:22.724Z,17.98
2022-08-28T05:27:22.664Z,17.97
2022-08-28T05:28:22.641Z,17.97
2022-08-28T05:29:23.526Z,17.98
2022-08-28T05:30:22.623Z,17.98
2022-08-28T05:31:22.736Z,17.98
2022-08-28T05:32:22.601Z,17.98
2022-08-28T05:33:22.590Z,17.98
2022-08-28T05:34:22.589Z,18.00
2022-08-28T05:35:22.574Z,17.97
2022-08-28T05:36:22.624Z,17.95
2022-08-28T05:37:22.551Z,17.94
2022-08-28T05:38:22.549Z,17.89
2022-08-28T05:39:22.571Z,17.86
2022-08-28T05:40:22.591Z,17.85
2022-08-28T05:41:22.576Z,17.85
2022-08-28T05:42:22.499Z,17.87
2022-08-28T05:43:22.473Z,17.87
2022-08-28T05:44:22.471Z,17.87
2022-08-28T05:45:22.495Z,17.79
2022-08-28T05:46:22.573Z,17.76
2022-08-28T05:47:22.452Z,17.76
2022-08-28T05:48:22.453Z,17.74
2022-08-28T05:49:22.428Z,17.74
2022-08-28T05:50:22.440Z,17.71
2022-08-28T05:51:22.523Z,17.72
2022-08-28T05:52:22.403Z,17.72
2022-08-28T05:53:22.403Z,17.74
2022-08-28T05:54:22.371Z,17.72
2022-08-28T05:55:22.360Z,17.63
2022-08-28T05:56:22.389Z,17.57
2022-08-28T05:57:22.340Z,17.54
2022-08-28T05:58:22.321Z,17.56
2022-08-28T05:59:22.311Z,17.54
2022-08-28T06:00:22.308Z,17.56
2022-08-28T06:01:22.356Z,17.54
2022-08-28T06:02:22.330Z,17.54
2022-08-28T06:03:22.256Z,17.52
2022-08-28T06:04:22.307Z,17.51
2022-08-28T06:05:22.252Z,17.46
2022-08-28T06:06:22.302Z,17.38
2022-08-28T06:07:22.219Z,17.36
2022-08-28T06:08:22.219Z,17.30
2022-08-28T06:09:26.554Z,17.31
2022-08-28T06:10:23.201Z,17.36
2022-08-28T06:11:22.232Z,17.36
2022-08-28T06:12:22.153Z,17.34
2022-08-28T06:13:22.153Z,17.30
2022-08-28T06:14:22.145Z,17.30
2022-08-28T06:15:22.156Z,17.23
2022-08-28T06:16:22.234Z,17.20
2022-08-28T06:17:23.559Z,17.19
2022-08-28T06:18:22.099Z,17.19
2022-08-28T06:19:22.126Z,17.19
2022-08-28T06:20:22.086Z,17.14
2022-08-28T06:21:22.110Z,17.15
2022-08-28T06:22:22.066Z,17.14
2022-08-28T06:23:24.117Z,17.12
2022-08-28T06:24:22.026Z,17.11
2022-08-28T06:25:22.041Z,17.11
2022-08-28T06:26:22.083Z,17.05
2022-08-28T06:27:22.037Z,17.04
2022-08-28T06:28:21.995Z,16.99
2022-08-28T06:29:22.088Z,17.02
2022-08-28T06:30:21.973Z,17.04
2022-08-28T06:31:23.657Z,17.04
2022-08-28T06:32:22.088Z,17.02
2022-08-28T06:33:21.966Z,16.97
2022-08-28T06:34:21.942Z,16.97
2022-08-28T06:35:21.932Z,17.01
2022-08-28T06:36:21.963Z,17.04
2022-08-28T06:37:21.900Z,17.06
2022-08-28T06:38:21.892Z,17.09
2022-08-28T06:39:21.891Z,17.09
2022-08-28T06:40:21.965Z,16.97
2022-08-28T06:41:21.924Z,16.97
2022-08-28T06:42:21.824Z,16.97
2022-08-28T06:43:21.815Z,16.96
2022-08-28T06:44:21.826Z,16.96
2022-08-28T06:45:21.820Z,16.97
2022-08-28T06:46:21.992Z,16.96
2022-08-28T06:47:21.792Z,16.96
2022-08-28T06:48:21.792Z,16.97
2022-08-28T06:49:21.752Z,16.97
2022-08-28T06:50:21.769Z,16.89
2022-08-28T06:51:24.981Z,16.86
2022-08-28T06:52:21.745Z,16.83
2022-08-28T06:53:21.735Z,16.87
2022-08-28T06:54:23.461Z,16.87
2022-08-28T06:55:21.700Z,16.90
2022-08-28T06:56:26.178Z,16.93
2022-08-28T06:57:22.694Z,16.91
2022-08-28T06:58:21.656Z,16.89
2022-08-28T06:59:21.657Z,16.87
2022-08-28T07:00:21.635Z,16.87
2022-08-28T07:01:21.765Z,16.89
2022-08-28T07:02:21.734Z,16.89
2022-08-28T07:03:22.612Z,16.90
2022-08-28T07:04:21.588Z,16.87
2022-08-28T07:05:21.589Z,16.87
2022-08-28T07:06:21.715Z,16.87
2022-08-28T07:07:32.683Z,16.87
2022-08-28T07:08:22.557Z,16.89
2022-08-28T07:09:21.542Z,16.87
2022-08-28T07:10:21.542Z,16.86
2022-08-28T07:11:21.555Z,16.84
2022-08-28T07:12:21.492Z,16.76
2022-08-28T07:13:21.485Z,16.74
2022-08-28T07:14:21.477Z,16.76
2022-08-28T07:15:21.486Z,16.75
2022-08-28T07:16:21.551Z,16.75
2022-08-28T07:17:21.461Z,16.76
2022-08-28T07:18:21.429Z,16.78
2022-08-28T07:19:21.457Z,16.78
2022-08-28T07:20:21.418Z,16.76
2022-08-28T07:21:21.456Z,16.76
2022-08-28T07:22:21.396Z,16.78
2022-08-28T07:23:21.384Z,16.76
2022-08-28T07:24:21.381Z,16.71
2022-08-28T07:25:21.366Z,16.72
2022-08-28T07:26:21.387Z,16.74
2022-08-28T07:27:21.356Z,16.75
2022-08-28T07:28:21.315Z,16.76
2022-08-28T07:29:21.328Z,16.75
2022-08-28T07:30:21.336Z,16.76
2022-08-28T07:31:21.413Z,16.76
2022-08-28T07:32:21.284Z,16.71
2022-08-28T07:33:21.256Z,16.68
2022-08-28T07:34:21.257Z,16.68
2022-08-28T07:35:21.237Z,16.72
2022-08-28T07:36:29.059Z,16.74
2022-08-28T07:37:22.229Z,16.75
2022-08-28T07:38:21.209Z,16.74
2022-08-28T07:39:21.216Z,16.79
2022-08-28T07:40:21.242Z,16.83
2022-08-28T07:41:21.202Z,16.86
2022-08-28T07:42:21.152Z,16.87
2022-08-28T07:43:21.170Z,16.86
2022-08-28T07:44:21.137Z,16.81
2022-08-28T07:45:21.138Z,16.79
2022-08-28T07:46:21.207Z,16.81
2022-08-28T07:47:21.134Z,16.89
2022-08-28T07:48:21.377Z,16.89
2022-08-28T07:49:21.099Z,16.89
2022-08-28T07:50:21.076Z,16.94
2022-08-28T07:51:21.106Z,17.02
2022-08-28T07:52:21.066Z,17.04
2022-08-28T07:53:21.039Z,17.11
2022-08-28T07:54:21.026Z,17.14
2022-08-28T07:55:21.035Z,17.08
2022-08-28T07:56:21.050Z,17.12
2022-08-28T07:57:20.999Z,17.01
2022-08-28T07:58:20.982Z,17.02
2022-08-28T07:59:21.026Z,17.05
2022-08-28T08:00:20.949Z,17.01
2022-08-28T08:01:21.047Z,17.02
2022-08-28T08:02:20.925Z,17.01
2022-08-28T08:03:20.957Z,17.05
2022-08-28T08:04:20.921Z,17.02
2022-08-28T08:05:20.927Z,17.06
2022-08-28T08:06:20.928Z,17.16
2022-08-28T08:07:20.891Z,17.11
2022-08-28T08:08:20.866Z,17.05
2022-08-28T08:09:20.860Z,16.97
2022-08-28T08:10:20.860Z,17.04
2022-08-28T08:11:20.867Z,17.05
2022-08-28T08:12:20.813Z,17.02
2022-08-28T08:13:20.839Z,17.06
2022-08-28T08:14:20.796Z,17.09
2022-08-28T08:15:20.805Z,17.14
2022-08-28T08:16:20.840Z,17.14
2022-08-28T08:17:20.753Z,17.15
2022-08-28T08:18:20.830Z,17.08
2022-08-28T08:19:20.748Z,16.96
2022-08-28T08:20:20.736Z,16.93
2022-08-28T08:21:20.777Z,16.90
2022-08-28T08:22:20.720Z,16.86
2022-08-28T08:23:20.733Z,16.93
2022-08-28T08:24:20.673Z,17.02
2022-08-28T08:25:20.659Z,17.01
2022-08-28T08:26:20.721Z,16.97
2022-08-28T08:27:20.664Z,16.90
2022-08-28T08:28:20.626Z,17.01
2022-08-28T08:29:20.651Z,17.05
2022-08-28T08:30:20.611Z,16.99
2022-08-28T08:31:20.683Z,17.04
2022-08-28T08:32:20.592Z,17.01
2022-08-28T08:33:20.574Z,17.02
2022-08-28T08:34:20.572Z,17.05
2022-08-28T08:35:20.561Z,17.06
2022-08-28T08:36:20.589Z,17.14
2022-08-28T08:37:20.537Z,17.22
2022-08-28T08:38:20.506Z,17.20
2022-08-28T08:39:20.533Z,17.22
2022-08-28T08:40:20.520Z,17.15
2022-08-28T08:41:20.471Z,17.14
2022-08-28T08:42:20.534Z,17.19
2022-08-28T08:43:20.471Z,17.20
2022-08-28T08:44:20.471Z,17.26
2022-08-28T08:45:20.458Z,17.34
2022-08-28T08:46:20.486Z,17.42
2022-08-28T08:47:20.426Z,17.52
2022-08-28T08:48:20.414Z,17.63
2022-08-28T08:49:20.397Z,17.72
2022-08-28T08:50:20.396Z,17.74
2022-08-28T08:51:20.440Z,17.83
2022-08-28T08:52:20.405Z,17.92
2022-08-28T08:53:20.358Z,17.82
2022-08-28T08:54:20.337Z,17.97
2022-08-28T08:55:20.350Z,17.78
2022-08-28T08:56:20.374Z,17.79
2022-08-28T08:57:20.326Z,17.90
2022-08-28T08:58:20.294Z,17.92
2022-08-28T08:59:20.301Z,17.92
2022-08-28T09:00:20.283Z,17.86
2022-08-28T09:01:20.358Z,18.04
2022-08-28T09:02:20.256Z,18.13
2022-08-28T09:03:20.254Z,18.16
2022-08-28T09:04:21.672Z,18.15
2022-08-28T09:05:20.224Z,18.01
2022-08-28T09:06:20.251Z,18.15
2022-08-28T09:07:20.200Z,18.23
2022-08-28T09:08:20.220Z,18.23
2022-08-28T09:09:20.188Z,18.26
2022-08-28T09:10:20.162Z,18.37
2022-08-28T09:11:20.191Z,18.29
2022-08-28T09:12:20.141Z,18.23
2022-08-28T09:13:20.149Z,18.20
2022-08-28T09:14:20.531Z,18.26
2022-08-28T09:15:20.124Z,18.29
2022-08-28T09:16:20.210Z,18.29
2022-08-28T09:17:20.101Z,18.23
2022-08-28T09:18:20.075Z,18.20
2022-08-28T09:19:20.063Z,18.23
2022-08-28T09:20:20.057Z,18.22
2022-08-28T09:21:21.113Z,18.28
2022-08-28T09:22:20.028Z,18.33
2022-08-28T09:23:20.018Z,18.37
2022-08-28T09:24:20.021Z,18.44
2022-08-28T09:25:19.993Z,18.44
2022-08-28T09:26:20.033Z,18.45
2022-08-28T09:27:19.975Z,18.53
2022-08-28T09:28:20.053Z,18.50
2022-08-28T09:29:19.957Z,18.52
2022-08-28T09:30:19.941Z,18.53
2022-08-28T09:31:19.995Z,18.53
2022-08-28T09:32:19.910Z,18.60
2022-08-28T09:33:19.925Z,18.68
2022-08-28T09:34:19.906Z,18.77
2022-08-28T09:35:19.909Z,18.70
2022-08-28T09:36:19.928Z,18.83
2022-08-28T09:37:19.867Z,18.90
2022-08-28T09:38:19.884Z,19.00
2022-08-28T09:39:19.832Z,19.15
2022-08-28T09:40:19.897Z,19.14
2022-08-28T09:41:19.858Z,18.95
2022-08-28T09:42:19.814Z,18.96
2022-08-28T09:43:19.803Z,19.02
2022-08-28T09:44:19.791Z,19.14
2022-08-28T09:45:19.776Z,19.24
2022-08-28T09:46:19.845Z,19.34
2022-08-28T09:47:19.763Z,19.44
2022-08-28T09:48:19.727Z,19.45
2022-08-28T09:49:19.754Z,19.41
2022-08-28T09:50:19.704Z,19.47
2022-08-28T09:51:19.745Z,19.58
2022-08-28T09:52:24.490Z,19.52
2022-08-28T09:53:20.701Z,19.66
2022-08-28T09:54:19.682Z,19.73
2022-08-28T09:55:19.654Z,19.86
2022-08-28T09:56:19.692Z,19.96
2022-08-28T09:57:19.659Z,19.91
2022-08-28T09:58:19.626Z,19.84
2022-08-28T09:59:19.613Z,19.89
2022-08-28T10:00:19.615Z,19.82
2022-08-28T10:01:19.715Z,19.91
2022-08-28T10:02:19.586Z,19.85
2022-08-28T10:03:19.590Z,19.91
2022-08-28T10:04:19.687Z,19.73
2022-08-28T10:05:19.571Z,19.86
2022-08-28T10:06:20.590Z,19.95
2022-08-28T10:07:19.538Z,20.00
2022-08-28T10:08:19.518Z,20.04
2022-08-28T10:09:19.492Z,20.16
2022-08-28T10:10:19.478Z,20.32
2022-08-28T10:11:19.511Z,20.43
2022-08-28T10:12:19.481Z,20.60
2022-08-28T10:13:19.447Z,20.74
2022-08-28T10:14:19.462Z,20.87
2022-08-28T10:15:19.445Z,20.97
2022-08-28T10:16:19.523Z,20.78
2022-08-28T10:17:21.629Z,20.87
2022-08-28T10:18:19.413Z,21.00
2022-08-28T10:19:19.390Z,20.93
2022-08-28T10:20:19.392Z,20.87
2022-08-28T10:21:19.413Z,21.00
2022-08-28T10:22:19.360Z,21.05
2022-08-28T10:23:19.356Z,21.12
2022-08-28T10:24:26.901Z,21.36
2022-08-28T10:25:20.363Z,21.42
2022-08-28T10:26:19.382Z,21.60
2022-08-28T10:27:19.320Z,21.66
2022-08-28T10:28:19.305Z,21.80
2022-08-28T10:29:19.281Z,21.85
2022-08-28T10:30:19.290Z,22.02
2022-08-28T10:31:19.363Z,22.04
2022-08-28T10:32:19.266Z,22.13
2022-08-28T10:33:19.232Z,22.28
2022-08-28T10:34:19.240Z,22.39
2022-08-28T10:35:19.211Z,22.48
2022-08-28T10:36:34.426Z,22.59
2022-08-28T10:37:20.214Z,22.73
2022-08-28T10:38:19.178Z,22.94
2022-08-28T10:39:19.151Z,23.23
2022-08-28T10:40:19.215Z,23.27
2022-08-28T10:41:19.170Z,23.43
2022-08-28T10:42:19.144Z,23.56
2022-08-28T10:43:19.134Z,23.77
2022-08-28T10:44:19.128Z,23.76
2022-08-28T10:45:19.114Z,23.87
2022-08-28T10:46:19.172Z,24.13
2022-08-28T10:47:19.084Z,24.16
2022-08-28T10:48:19.072Z,23.96
2022-08-28T10:49:19.058Z,23.99
2022-08-28T10:50:19.166Z,24.30
2022-08-28T10:51:19.100Z,24.29
2022-08-28T10:52:20.034Z,24.58
2022-08-28T10:53:19.022Z,24.65
2022-08-28T10:54:18.997Z,24.68
2022-08-28T10:55:18.991Z,24.63
2022-08-28T10:56:19.032Z,24.20
2022-08-28T10:57:18.966Z,23.99
2022-08-28T10:58:23.844Z,24.06
2022-08-28T10:59:19.971Z,24.18
2022-08-28T11:00:18.939Z,24.05
2022-08-28T11:01:19.051Z,23.88
2022-08-28T11:02:18.957Z,23.87
2022-08-28T11:03:33.900Z,23.50
2022-08-28T11:04:25.242Z,23.46
2022-08-28T11:05:19.888Z,23.39
2022-08-28T11:06:18.947Z,23.32
2022-08-28T11:07:18.843Z,23.15
2022-08-28T11:08:18.840Z,23.34
2022-08-28T11:09:18.823Z,23.32
2022-08-28T11:10:18.815Z,23.51
2022-08-28T11:11:18.855Z,24.33
2022-08-28T11:12:18.805Z,25.11
2022-08-28T11:13:18.814Z,26.07
2022-08-28T11:14:18.780Z,26.47
2022-08-28T11:15:18.784Z,26.06
2022-08-28T11:16:18.850Z,26.62
2022-08-28T11:17:18.756Z,27.37
2022-08-28T11:18:18.748Z,27.07
2022-08-28T11:19:18.738Z,27.27
2022-08-28T11:20:18.720Z,27.47
2022-08-28T11:21:18.740Z,27.75
2022-08-28T11:22:18.723Z,27.26
2022-08-28T11:23:18.686Z,26.44
2022-08-28T11:24:18.675Z,25.81
2022-08-28T11:25:18.657Z,25.14
2022-08-28T11:26:19.692Z,24.69
2022-08-28T11:27:18.647Z,24.65
2022-08-28T11:28:18.656Z,25.07
2022-08-28T11:29:18.641Z,25.55
2022-08-28T11:30:18.623Z,25.28
2022-08-28T11:31:28.841Z,25.04
2022-08-28T11:32:19.585Z,24.91
2022-08-28T11:33:18.570Z,25.08
2022-08-28T11:34:18.573Z,24.89
2022-08-28T11:35:18.552Z,24.96
2022-08-28T11:36:18.612Z,25.31
2022-08-28T11:37:18.540Z,25.95
2022-08-28T11:38:20.097Z,26.44
2022-08-28T11:39:18.509Z,26.26
2022-08-28T11:40:18.574Z,25.18
2022-08-28T11:41:18.527Z,24.68
2022-08-28T11:42:18.496Z,24.48
2022-08-28T11:43:18.455Z,24.78
2022-08-28T11:44:18.457Z,24.91
2022-08-28T11:45:18.432Z,25.33
2022-08-28T11:46:22.192Z,25.54
2022-08-28T11:47:19.412Z,25.33
2022-08-28T11:48:18.420Z,25.59
2022-08-28T11:49:18.400Z,25.59
2022-08-28T11:50:18.376Z,24.95
2022-08-28T11:51:18.423Z,24.74
2022-08-28T11:52:18.395Z,25.41
2022-08-28T11:53:18.367Z,26.09
2022-08-28T11:54:18.352Z,26.59
2022-08-28T11:55:18.343Z,26.60
2022-08-28T11:56:21.962Z,26.18
2022-08-28T11:57:19.354Z,25.84
2022-08-28T11:58:18.304Z,25.87
2022-08-28T11:59:18.298Z,26.80
2022-08-28T12:00:18.275Z,27.32
2022-08-28T12:01:18.263Z,27.20
2022-08-28T12:02:18.377Z,26.68
2022-08-28T12:03:18.256Z,26.75
2022-08-28T12:04:18.273Z,27.75
2022-08-28T12:05:18.230Z,27.87
2022-08-28T12:06:18.215Z,26.58
2022-08-28T12:07:18.228Z,25.83
2022-08-28T12:08:18.204Z,25.47
2022-08-28T12:09:18.165Z,25.10
2022-08-28T12:10:18.162Z,25.07
2022-08-28T12:11:18.149Z,25.01
2022-08-28T12:12:18.212Z,24.93
2022-08-28T12:13:18.135Z,24.86
2022-08-28T12:14:18.119Z,24.81
2022-08-28T12:15:18.138Z,25.46
2022-08-28T12:16:18.143Z,25.33
2022-08-28T12:17:18.142Z,25.72
2022-08-28T12:18:18.079Z,26.33
2022-08-28T12:19:18.114Z,26.38
2022-08-28T12:20:18.064Z,26.77
2022-08-28T12:21:18.044Z,27.10
2022-08-28T12:22:18.097Z,27.12
2022-08-28T12:23:18.049Z,26.88
2022-08-28T12:24:18.027Z,27.39
2022-08-28T12:25:18.022Z,26.05
2022-08-28T12:26:18.025Z,25.48
2022-08-28T12:27:18.039Z,24.95
2022-08-28T12:28:17.976Z,24.65
2022-08-28T12:29:17.955Z,24.92
2022-08-28T12:30:17.967Z,25.32
2022-08-28T12:31:18.005Z,25.80
2022-08-28T12:32:17.979Z,26.90
2022-08-28T12:33:17.919Z,27.51
2022-08-28T12:34:17.920Z,27.39
2022-08-28T12:35:17.903Z,27.37
2022-08-28T12:36:17.950Z,26.78
2022-08-28T12:37:17.926Z,26.37
2022-08-28T12:38:17.870Z,26.84
2022-08-28T12:39:17.836Z,26.65
2022-08-28T12:40:17.944Z,27.70
2022-08-28T12:41:17.900Z,27.63
2022-08-28T12:42:17.898Z,27.05
2022-08-28T12:43:17.827Z,27.33
2022-08-28T12:44:17.804Z,26.92
2022-08-28T12:45:17.796Z,27.17
2022-08-28T12:46:18.989Z,27.26
2022-08-28T12:47:17.814Z,26.40
2022-08-28T12:48:17.768Z,25.88
2022-08-28T12:49:17.757Z,25.47
2022-08-28T12:50:17.738Z,25.75
2022-08-28T12:51:17.721Z,26.28
2022-08-28T12:52:17.811Z,26.68